Thunder radar more information blitzortung!


Rain radar more information rain snow radar



Rapports METAR proximité

   
EHVK - Volkel Rnlafb, Netherlands
Distance: SO 18 km
Mise à jour: 27-09-2021 05:25
Peu de nuages  
Peu de nuages  
   Vent: Sud 9.3 km/h
Vent: Sud 9.3 km/h
Température: 15°C
Point de rosée: 14°C
Humidité: 94%
Baromètre: 1014 hPa
Nuageux: Peu de nuages
visibilité: More than 10 km
Détails des nuages: Peu de nuages 3300 ft
EHVK 270325Z AUTO 18005KT 9999 FEW033 15/14 Q1014 BLU
EDLV - Niederrhein, Germany
Distance: SE 25 km
Mise à jour: 27-09-2021 05:20
Claires  
Claires  
   Vent: Sud 11.1 km/h
Vent: Sud 11.1 km/h
Température: 14°C
Point de rosée: 14°C
Humidité: 100%
Baromètre: 1014 hPa
visibilité: More than 10 km
Détails des nuages: Claires
EDLV 270320Z 17006KT CAVOK 14/14 Q1014
EHDL - Deelen Rnlafb, Netherlands
Distance: N 35 km
Mise à jour: 27-09-2021 05:25
Brouillard, Claires  
Brouillard, Claires  
   Vent: Sud 9.3 km/h
Vent: Sud 9.3 km/h
Température: 14°C
Point de rosée: 14°C
Humidité: 100%
Baromètre: 1014 hPa
Nuageux: Claires
visibilité: 7 km
Détails des nuages: Claires
EHDL 270325Z AUTO 17005KT 090V190 7000 BR NCD 14/14 Q1014 WHT
EHEH - Eindhoven Rnlafb, Netherlands
Distance: SO 48 km
Mise à jour: 27-09-2021 05:25
Nuageux  
Nuageux  
   Vent: Sud 11.1 km/h
Vent: Sud 11.1 km/h
Température: 15°C
Point de rosée: 15°C
Humidité: 100%
Baromètre: 1014 hPa
Nuageux: Nuageux
visibilité: More than 10 km
Détails des nuages: Nuageux 1300 ft,
Nuageux 1500 ft
EHEH 270325Z AUTO 17006KT 160V230 9999 BKN013 OVC015 15/15 Q1014 GRN
EHGR - Gilze-Rijen Rnla, Netherlands
Distance: OSO 70 km
Mise à jour: 27-09-2021 05:25
Brouillard, Claires  
Brouillard, Claires  
   Vent: Sud 9.3 km/h
Vent: Sud 9.3 km/h
Température: 14°C
Point de rosée: 14°C
Humidité: 100%
Baromètre: 1013 hPa
Nuageux: Claires
visibilité: 5 km
Détails des nuages: Claires
EHGR 270325Z AUTO 17005KT 130V190 5000 BR NCD 14/14 Q1013 WHT
EBBL - Kleine-Brogel(Ba, Belgium
Distance: SSO 71 km
Mise à jour: 27-09-2021 05:25
Nuageux  
Nuageux  
   Vent: SSO 9.3 km/h
Vent: SSO 9.3 km/h
Température: 16°C
Point de rosée: 15°C
Humidité: 94%
Baromètre: 1014 hPa
Nuageux: Nuageux
visibilité: More than 10 km
Détails des nuages: Peu de nuages 1700 ft,
Nuageux 3600 ft
EBBL 270325Z AUTO 21005KT 9999 FEW017/// BKN036/// 16/15 Q1014 BLU

Script développé par  Saratoga-weather.org Adapté pour le modèle par  Weerstation Leuven

Vous trouverez notre info météo Également à:

Weather Underground

Équipement que nous utilisons:

Station de Météo
Davis VP2

Programme Météo
Meteobridge

Ordinateur Météo
Apple Imac

Davis VP2

Meteobridge

Apple Imac